sensor_id;sensor_type;location;lat;lon;timestamp;pressure;altitude;pressure_sealevel;temperature;humidity
36726;BME280;44936;52.086;5.150;2023-09-08T00:00:30;102273.81;;;18.45;100.00
36726;BME280;44936;52.086;5.150;2023-09-08T00:02:56;102275.53;;;18.51;100.00
36726;BME280;44936;52.086;5.150;2023-09-08T00:05:21;102254.31;;;18.48;100.00
36726;BME280;44936;52.086;5.150;2023-09-08T00:07:46;102264.94;;;18.48;100.00
36726;BME280;44936;52.086;5.150;2023-09-08T00:10:12;102262.28;;;18.45;100.00
36726;BME280;44936;52.086;5.150;2023-09-08T00:12:38;102258.78;;;18.43;100.00
36726;BME280;44936;52.086;5.150;2023-09-08T00:15:04;102265.84;;;18.44;100.00
36726;BME280;44936;52.086;5.150;2023-09-08T00:17:29;102272.94;;;18.42;100.00
36726;BME280;44936;52.086;5.150;2023-09-08T00:19:57;102288.00;;;18.41;100.00
36726;BME280;44936;52.086;5.150;2023-09-08T00:22:22;102280.06;;;18.39;100.00
36726;BME280;44936;52.086;5.150;2023-09-08T00:24:47;102264.13;;;18.36;100.00
36726;BME280;44936;52.086;5.150;2023-09-08T00:27:13;102261.47;;;18.36;100.00
36726;BME280;44936;52.086;5.150;2023-09-08T00:29:39;102256.19;;;18.33;100.00
36726;BME280;44936;52.086;5.150;2023-09-08T00:32:04;102253.56;;;18.30;100.00
36726;BME280;44936;52.086;5.150;2023-09-08T00:34:30;102256.22;;;18.27;100.00
36726;BME280;44936;52.086;5.150;2023-09-08T00:36:55;102272.16;;;18.30;100.00
36726;BME280;44936;52.086;5.150;2023-09-08T00:39:21;102271.25;;;18.31;100.00
36726;BME280;44936;52.086;5.150;2023-09-08T00:41:46;102259.75;;;18.28;100.00
36726;BME280;44936;52.086;5.150;2023-09-08T00:44:12;102253.59;;;18.24;100.00
36726;BME280;44936;52.086;5.150;2023-09-08T00:46:38;102253.56;;;18.27;100.00
36726;BME280;44936;52.086;5.150;2023-09-08T00:49:04;102238.50;;;18.26;100.00
36726;BME280;44936;52.086;5.150;2023-09-08T00:51:30;102227.88;;;18.26;100.00
36726;BME280;44936;52.086;5.150;2023-09-08T00:53:55;102216.41;;;18.24;100.00
36726;BME280;44936;52.086;5.150;2023-09-08T00:56:22;102192.50;;;18.20;100.00
36726;BME280;44936;52.086;5.150;2023-09-08T00:58:47;102196.94;;;18.19;100.00
36726;BME280;44936;52.086;5.150;2023-09-08T01:01:13;102206.72;;;18.20;100.00
36726;BME280;44936;52.086;5.150;2023-09-08T01:03:38;102221.75;;;18.18;100.00
36726;BME280;44936;52.086;5.150;2023-09-08T01:06:04;102235.00;;;18.20;100.00
36726;BME280;44936;52.086;5.150;2023-09-08T01:08:29;102226.19;;;18.21;100.00
36726;BME280;44936;52.086;5.150;2023-09-08T01:10:55;102224.41;;;18.18;100.00
36726;BME280;44936;52.086;5.150;2023-09-08T01:13:21;102221.75;;;18.18;100.00
36726;BME280;44936;52.086;5.150;2023-09-08T01:15:48;102219.13;;;18.15;100.00
36726;BME280;44936;52.086;5.150;2023-09-08T01:18:13;102191.72;;;18.07;100.00
36726;BME280;44936;52.086;5.150;2023-09-08T01:26:04;102166.00;;;18.15;100.00
36726;BME280;44936;52.086;5.150;2023-09-08T01:28:33;102160.72;;;18.12;100.00
36726;BME280;44936;52.086;5.150;2023-09-08T01:30:58;102164.25;;;18.14;100.00
36726;BME280;44936;52.086;5.150;2023-09-08T01:33:24;102165.16;;;18.10;100.00
36726;BME280;44936;52.086;5.150;2023-09-08T01:35:50;102166.94;;;18.11;100.00
36726;BME280;44936;52.086;5.150;2023-09-08T01:38:16;102174.91;;;18.08;100.00
36726;BME280;44936;52.086;5.150;2023-09-08T01:40:41;102179.34;;;18.07;100.00
36726;BME280;44936;52.086;5.150;2023-09-08T01:43:07;102188.22;;;18.05;100.00
36726;BME280;44936;52.086;5.150;2023-09-08T01:45:32;102204.16;;;18.05;100.00
36726;BME280;44936;52.086;5.150;2023-09-08T01:47:58;102215.66;;;18.04;100.00
36726;BME280;44936;52.086;5.150;2023-09-08T01:50:23;102220.97;;;18.01;100.00
36726;BME280;44936;52.086;5.150;2023-09-08T01:52:50;102233.38;;;17.99;100.00
36726;BME280;44936;52.086;5.150;2023-09-08T01:55:15;102224.59;;;17.88;100.00
36726;BME280;44936;52.086;5.150;2023-09-08T01:57:43;102224.53;;;17.97;100.00
36726;BME280;44936;52.086;5.150;2023-09-08T02:00:12;102219.22;;;17.97;100.00
36726;BME280;44936;52.086;5.150;2023-09-08T02:02:38;102212.16;;;17.93;100.00
36726;BME280;44936;52.086;5.150;2023-09-08T02:05:04;102214.81;;;17.93;100.00
36726;BME280;44936;52.086;5.150;2023-09-08T02:07:29;102213.94;;;17.94;100.00
36726;BME280;44936;52.086;5.150;2023-09-08T02:09:54;102196.31;;;17.82;100.00
36726;BME280;44936;52.086;5.150;2023-09-08T02:12:21;102196.28;;;17.88;100.00
36726;BME280;44936;52.086;5.150;2023-09-08T02:14:47;102188.31;;;17.90;100.00
36726;BME280;44936;52.086;5.150;2023-09-08T02:17:12;102179.50;;;17.86;100.00
36726;BME280;44936;52.086;5.150;2023-09-08T02:19:37;102154.72;;;17.86;100.00
36726;BME280;44936;52.086;5.150;2023-09-08T02:22:03;102151.19;;;17.85;100.00
36726;BME280;44936;52.086;5.150;2023-09-08T02:24:28;102130.88;;;17.78;100.00
36726;BME280;44936;52.086;5.150;2023-09-08T02:26:53;102137.91;;;17.82;100.00
36726;BME280;44936;52.086;5.150;2023-09-08T02:29:19;102150.34;;;17.78;100.00
36726;BME280;44936;52.086;5.150;2023-09-08T02:31:44;102156.50;;;17.80;100.00
36726;BME280;44936;52.086;5.150;2023-09-08T02:34:10;102167.13;;;17.80;100.00
36726;BME280;44936;52.086;5.150;2023-09-08T02:36:36;102157.41;;;17.79;100.00
36726;BME280;44936;52.086;5.150;2023-09-08T02:39:02;102145.06;;;17.72;100.00
36726;BME280;44936;52.086;5.150;2023-09-08T02:41:27;102152.13;;;17.76;100.00
36726;BME280;44936;52.086;5.150;2023-09-08T02:43:53;102167.16;;;17.76;100.00
36726;BME280;44936;52.086;5.150;2023-09-08T02:46:18;102183.94;;;17.75;100.00
36726;BME280;44936;52.086;5.150;2023-09-08T02:48:43;102183.97;;;17.76;100.00
36726;BME280;44936;52.086;5.150;2023-09-08T02:51:09;102198.13;;;17.72;100.00
36726;BME280;44936;52.086;5.150;2023-09-08T02:53:34;102204.31;;;17.71;100.00
36726;BME280;44936;52.086;5.150;2023-09-08T02:56:00;102196.34;;;17.73;100.00
36726;BME280;44936;52.086;5.150;2023-09-08T02:58:26;102193.72;;;17.70;100.00
36726;BME280;44936;52.086;5.150;2023-09-08T03:00:52;102198.13;;;17.69;100.00
36726;BME280;44936;52.086;5.150;2023-09-08T03:03:20;102211.38;;;17.65;100.00
36726;BME280;44936;52.086;5.150;2023-09-08T03:05:46;102233.53;;;17.62;100.00
36726;BME280;44936;52.086;5.150;2023-09-08T03:08:11;102234.41;;;17.60;100.00
36726;BME280;44936;52.086;5.150;2023-09-08T03:10:37;102223.81;;;17.53;100.00
36726;BME280;44936;52.086;5.150;2023-09-08T03:13:06;102222.91;;;17.62;100.00
36726;BME280;44936;52.086;5.150;2023-09-08T03:15:32;102222.94;;;17.59;100.00
36726;BME280;44936;52.086;5.150;2023-09-08T03:17:59;102214.97;;;17.59;100.00
36726;BME280;44936;52.086;5.150;2023-09-08T03:20:25;102218.50;;;17.55;100.00
36726;BME280;44936;52.086;5.150;2023-09-08T03:22:54;102229.13;;;17.53;100.00
36726;BME280;44936;52.086;5.150;2023-09-08T03:25:19;102227.41;;;17.45;100.00
36726;BME280;44936;52.086;5.150;2023-09-08T03:27:45;102237.97;;;17.52;100.00
36726;BME280;44936;52.086;5.150;2023-09-08T03:30:10;102217.69;;;17.42;100.00
36726;BME280;44936;52.086;5.150;2023-09-08T03:32:37;102222.97;;;17.50;100.00
36726;BME280;44936;52.086;5.150;2023-09-08T03:35:02;102199.97;;;17.50;100.00
36726;BME280;44936;52.086;5.150;2023-09-08T03:37:29;102187.59;;;17.46;100.00
36726;BME280;44936;52.086;5.150;2023-09-08T03:39:54;102170.84;;;17.37;100.00
36726;BME280;44936;52.086;5.150;2023-09-08T03:42:20;102182.31;;;17.45;100.00
36726;BME280;44936;52.086;5.150;2023-09-08T03:44:45;102174.34;;;17.43;100.00
36726;BME280;44936;52.086;5.150;2023-09-08T03:47:11;102172.59;;;17.38;100.00
36726;BME280;44936;52.086;5.150;2023-09-08T03:49:36;102178.78;;;17.40;100.00
36726;BME280;44936;52.086;5.150;2023-09-08T03:52:01;102180.56;;;17.36;100.00
36726;BME280;44936;52.086;5.150;2023-09-08T03:54:27;102168.16;;;17.38;100.00
36726;BME280;44936;52.086;5.150;2023-09-08T03:56:52;102161.13;;;17.36;100.00
36726;BME280;44936;52.086;5.150;2023-09-08T03:59:17;102152.25;;;17.40;100.00
36726;BME280;44936;52.086;5.150;2023-09-08T04:01:43;102112.50;;;17.31;100.00
36726;BME280;44936;52.086;5.150;2023-09-08T04:04:08;102104.56;;;17.34;100.00
36726;BME280;44936;52.086;5.150;2023-09-08T04:06:33;102105.44;;;17.34;100.00
36726;BME280;44936;52.086;5.150;2023-09-08T04:08:59;102105.41;;;17.37;100.00
36726;BME280;44936;52.086;5.150;2023-09-08T04:11:24;102081.59;;;17.28;100.00
36726;BME280;44936;52.086;5.150;2023-09-08T04:13:51;102080.69;;;17.34;100.00
36726;BME280;44936;52.086;5.150;2023-09-08T04:16:16;102091.31;;;17.32;100.00
36726;BME280;44936;52.086;5.150;2023-09-08T04:18:41;102085.13;;;17.30;100.00
36726;BME280;44936;52.086;5.150;2023-09-08T04:21:07;102093.09;;;17.32;100.00
36726;BME280;44936;52.086;5.150;2023-09-08T04:23:33;102101.91;;;17.31;100.00
36726;BME280;44936;52.086;5.150;2023-09-08T04:25:58;102082.50;;;17.19;100.00
36726;BME280;44936;52.086;5.150;2023-09-08T04:28:24;102056.97;;;17.06;100.00
36726;BME280;44936;52.086;5.150;2023-09-08T04:30:49;102084.25;;;17.28;100.00
36726;BME280;44936;52.086;5.150;2023-09-08T04:33:14;102086.91;;;17.26;100.00
36726;BME280;44936;52.086;5.150;2023-09-08T04:35:40;102079.84;;;17.25;100.00
36726;BME280;44936;52.086;5.150;2023-09-08T04:38:05;102086.03;;;17.26;100.00
36726;BME280;44936;52.086;5.150;2023-09-08T04:40:30;102067.47;;;17.27;100.00
36726;BME280;44936;52.086;5.150;2023-09-08T04:42:56;102039.16;;;17.28;100.00
36726;BME280;44936;52.086;5.150;2023-09-08T04:45:21;102027.66;;;17.29;100.00
36726;BME280;44936;52.086;5.150;2023-09-08T04:47:46;102017.16;;;17.17;100.00
36726;BME280;44936;52.086;5.150;2023-09-08T04:50:12;102034.78;;;17.24;100.00
36726;BME280;44936;52.086;5.150;2023-09-08T04:52:37;102033.91;;;17.25;100.00
36726;BME280;44936;52.086;5.150;2023-09-08T04:55:03;102034.81;;;17.18;100.00
36726;BME280;44936;52.086;5.150;2023-09-08T04:57:28;102063.06;;;17.20;100.00
36726;BME280;44936;52.086;5.150;2023-09-08T04:59:54;102082.56;;;17.15;100.00
36726;BME280;44936;52.086;5.150;2023-09-08T05:02:19;102127.63;;;17.16;100.00
36726;BME280;44936;52.086;5.150;2023-09-08T05:04:44;102133.78;;;17.18;100.00
36726;BME280;44936;52.086;5.150;2023-09-08T05:07:10;102131.13;;;17.18;100.00
36726;BME280;44936;52.086;5.150;2023-09-08T05:09:35;102106.41;;;17.13;100.00
36726;BME280;44936;52.086;5.150;2023-09-08T05:12:01;102096.69;;;17.17;100.00
36726;BME280;44936;52.086;5.150;2023-09-08T05:14:27;102063.09;;;17.16;100.00
36726;BME280;44936;52.086;5.150;2023-09-08T05:16:52;102031.28;;;17.16;100.00
36726;BME280;44936;52.086;5.150;2023-09-08T05:19:21;101989.78;;;17.10;100.00
36726;BME280;44936;52.086;5.150;2023-09-08T05:21:47;101959.81;;;16.99;100.00
36726;BME280;44936;52.086;5.150;2023-09-08T05:24:12;101966.78;;;17.15;100.00
36726;BME280;44936;52.086;5.150;2023-09-08T05:26:38;101956.19;;;17.15;100.00
36726;BME280;44936;52.086;5.150;2023-09-08T05:29:04;101944.69;;;17.16;100.00
36726;BME280;44936;52.086;5.150;2023-09-08T05:31:29;101928.84;;;17.07;100.00
36726;BME280;44936;52.086;5.150;2023-09-08T05:33:54;101936.72;;;17.16;100.00
36726;BME280;44936;52.086;5.150;2023-09-08T05:36:20;101927.88;;;17.19;100.00
36726;BME280;44936;52.086;5.150;2023-09-08T05:38:45;101913.72;;;17.18;100.00
36726;BME280;44936;52.086;5.150;2023-09-08T05:41:11;101928.75;;;17.19;100.00
36726;BME280;44936;52.086;5.150;2023-09-08T05:43:36;101942.88;;;17.24;100.00
36726;BME280;44936;52.086;5.150;2023-09-08T05:46:01;101927.81;;;17.28;100.00
36726;BME280;44936;52.086;5.150;2023-09-08T05:48:27;101890.72;;;17.20;100.00
36726;BME280;44936;52.086;5.150;2023-09-08T05:50:52;101881.84;;;17.27;100.00
36726;BME280;44936;52.086;5.150;2023-09-08T05:53:18;101880.06;;;17.30;100.00
36726;BME280;44936;52.086;5.150;2023-09-08T05:55:43;101876.50;;;17.31;100.00
36726;BME280;44936;52.086;5.150;2023-09-08T05:58:09;101881.81;;;17.34;100.00
36726;BME280;44936;52.086;5.150;2023-09-08T06:00:36;101869.44;;;17.34;100.00
36726;BME280;44936;52.086;5.150;2023-09-08T06:03:01;101879.97;;;17.39;100.00
36726;BME280;44936;52.086;5.150;2023-09-08T06:05:27;101889.69;;;17.43;100.00
36726;BME280;44936;52.086;5.150;2023-09-08T06:07:52;101940.06;;;17.43;100.00
36726;BME280;44936;52.086;5.150;2023-09-08T06:10:18;101978.03;;;17.48;100.00
36726;BME280;44936;52.086;5.150;2023-09-08T06:12:43;101993.97;;;17.49;100.00
36726;BME280;44936;52.086;5.150;2023-09-08T06:15:08;101986.00;;;17.46;100.00
36726;BME280;44936;52.086;5.150;2023-09-08T06:17:34;101989.53;;;17.47;100.00
36726;BME280;44936;52.086;5.150;2023-09-08T06:19:59;101999.19;;;17.55;100.00
36726;BME280;44936;52.086;5.150;2023-09-08T06:22:25;102040.81;;;17.52;100.00
36726;BME280;44936;52.086;5.150;2023-09-08T06:24:50;102086.72;;;17.57;100.00
36726;BME280;44936;52.086;5.150;2023-09-08T06:27:16;102107.06;;;17.61;100.00
36726;BME280;44936;52.086;5.150;2023-09-08T06:29:41;102099.06;;;17.67;100.00
36726;BME280;44936;52.086;5.150;2023-09-08T06:32:09;102091.09;;;17.69;100.00
36726;BME280;44936;52.086;5.150;2023-09-08T06:34:35;102108.84;;;17.61;100.00
36726;BME280;44936;52.086;5.150;2023-09-08T06:37:01;102166.28;;;17.63;100.00
36726;BME280;44936;52.086;5.150;2023-09-08T06:39:27;102219.38;;;17.63;100.00
36726;BME280;44936;52.086;5.150;2023-09-08T06:41:52;102261.78;;;17.78;100.00
36726;BME280;44936;52.086;5.150;2023-09-08T06:44:20;102269.75;;;17.75;100.00
36726;BME280;44936;52.086;5.150;2023-09-08T06:46:45;102327.28;;;17.76;100.00
36726;BME280;44936;52.086;5.150;2023-09-08T06:49:10;102337.88;;;17.79;100.00
36726;BME280;44936;52.086;5.150;2023-09-08T06:51:36;102383.88;;;17.78;100.00
36726;BME280;44936;52.086;5.150;2023-09-08T06:54:02;102403.31;;;17.87;100.00
36726;BME280;44936;52.086;5.150;2023-09-08T06:56:28;102390.91;;;17.92;100.00
36726;BME280;44936;52.086;5.150;2023-09-08T06:58:53;102402.41;;;17.91;100.00
36726;BME280;44936;52.086;5.150;2023-09-08T07:01:19;102413.03;;;17.95;100.00
36726;BME280;44936;52.086;5.150;2023-09-08T07:03:44;102406.84;;;17.96;100.00
36726;BME280;44936;52.086;5.150;2023-09-08T07:06:10;102409.47;;;18.05;100.00
36726;BME280;44936;52.086;5.150;2023-09-08T07:08:35;102415.66;;;18.06;100.00
36726;BME280;44936;52.086;5.150;2023-09-08T07:11:00;102429.81;;;18.11;100.00
36726;BME280;44936;52.086;5.150;2023-09-08T07:13:26;102417.41;;;18.10;100.00
36726;BME280;44936;52.086;5.150;2023-09-08T07:15:51;102439.56;;;17.97;100.00
36726;BME280;44936;52.086;5.150;2023-09-08T07:18:17;102488.22;;;18.14;100.00
36726;BME280;44936;52.086;5.150;2023-09-08T07:20:46;102496.19;;;18.22;100.00
36726;BME280;44936;52.086;5.150;2023-09-08T07:23:16;102484.69;;;18.07;100.00
36726;BME280;44936;52.086;5.150;2023-09-08T07:25:46;102527.16;;;18.24;100.00
36726;BME280;44936;52.086;5.150;2023-09-08T07:28:11;102516.50;;;18.20;100.00
36726;BME280;44936;52.086;5.150;2023-09-08T07:30:36;102546.59;;;18.32;100.00
36726;BME280;44936;52.086;5.150;2023-09-08T07:33:02;102528.00;;;18.35;100.00
36726;BME280;44936;52.086;5.150;2023-09-08T07:35:29;102527.97;;;18.45;100.00
36726;BME280;44936;52.086;5.150;2023-09-08T07:37:55;102543.94;;;18.48;100.00
36726;BME280;44936;52.086;5.150;2023-09-08T07:40:20;102526.19;;;18.50;100.00
36726;BME280;44936;52.086;5.150;2023-09-08T07:42:46;102527.97;;;18.51;100.00
36726;BME280;44936;52.086;5.150;2023-09-08T07:45:14;102512.03;;;18.55;100.00
36726;BME280;44936;52.086;5.150;2023-09-08T07:47:40;102527.97;;;18.55;100.00
36726;BME280;44936;52.086;5.150;2023-09-08T07:50:24;102546.56;;;18.51;100.00
36726;BME280;44936;52.086;5.150;2023-09-08T07:52:51;102562.47;;;18.69;100.00
36726;BME280;44936;52.086;5.150;2023-09-08T07:55:17;102550.06;;;18.73;100.00
36726;BME280;44936;52.086;5.150;2023-09-08T07:57:44;102533.22;;;18.77;100.00
36726;BME280;44936;52.086;5.150;2023-09-08T08:00:11;102531.41;;;18.85;100.00
36726;BME280;44936;52.086;5.150;2023-09-08T08:02:41;102526.94;;;18.90;100.00
36726;BME280;44936;52.086;5.150;2023-09-08T08:05:07;102531.34;;;18.97;100.00
36726;BME280;44936;52.086;5.150;2023-09-08T08:07:32;102526.91;;;18.98;100.00
36726;BME280;44936;52.086;5.150;2023-09-08T08:09:58;102512.78;;;18.92;100.00
36726;BME280;44936;52.086;5.150;2023-09-08T08:12:23;102532.19;;;19.07;100.00
36726;BME280;44936;52.086;5.150;2023-09-08T08:14:48;102530.38;;;19.15;100.00
36726;BME280;44936;52.086;5.150;2023-09-08T08:17:14;102523.22;;;19.23;100.00
36726;BME280;44936;52.086;5.150;2023-09-08T08:19:42;102543.59;;;19.29;100.00
36726;BME280;44936;52.086;5.150;2023-09-08T08:22:07;102581.66;;;19.41;100.00
36726;BME280;44936;52.086;5.150;2023-09-08T08:24:33;102582.53;;;19.40;100.00
36726;BME280;44936;52.086;5.150;2023-09-08T08:26:58;102572.81;;;19.36;100.00
36726;BME280;44936;52.086;5.150;2023-09-08T08:29:23;102571.91;;;19.40;100.00
36726;BME280;44936;52.086;5.150;2023-09-08T08:31:49;102582.50;;;19.52;100.00
36726;BME280;44936;52.086;5.150;2023-09-08T08:34:14;102583.28;;;19.67;100.00
36726;BME280;44936;52.086;5.150;2023-09-08T08:36:40;102590.38;;;19.71;100.00
36726;BME280;44936;52.086;5.150;2023-09-08T08:39:05;102573.47;;;19.75;100.00
36726;BME280;44936;52.086;5.150;2023-09-08T08:41:30;102580.56;;;19.79;100.00
36726;BME280;44936;52.086;5.150;2023-09-08T08:43:56;102579.59;;;19.89;100.00
36726;BME280;44936;52.086;5.150;2023-09-08T08:46:22;102599.97;;;19.92;100.00
36726;BME280;44936;52.086;5.150;2023-09-08T08:48:48;102598.97;;;20.06;100.00
36726;BME280;44936;52.086;5.150;2023-09-08T08:51:17;102589.19;;;20.08;100.00
36726;BME280;44936;52.086;5.150;2023-09-08T08:53:43;102594.50;;;20.10;100.00
36726;BME280;44936;52.086;5.150;2023-09-08T08:56:09;102597.06;;;20.21;100.00
36726;BME280;44936;52.086;5.150;2023-09-08T08:58:37;102588.06;;;20.34;100.00
36726;BME280;44936;52.086;5.150;2023-09-08T09:01:04;102616.41;;;20.44;100.00
36726;BME280;44936;52.086;5.150;2023-09-08T09:03:34;102621.66;;;20.53;100.00
36726;BME280;44936;52.086;5.150;2023-09-08T09:06:02;102608.28;;;20.56;100.00
36726;BME280;44936;52.086;5.150;2023-09-08T09:08:37;102626.78;;;20.72;100.00
36726;BME280;44936;52.086;5.150;2023-09-08T09:11:03;102613.41;;;20.78;100.00
36726;BME280;44936;52.086;5.150;2023-09-08T09:13:32;102639.03;;;20.91;100.00
36726;BME280;44936;52.086;5.150;2023-09-08T09:15:59;102631.81;;;20.99;100.00
36726;BME280;44936;52.086;5.150;2023-09-08T09:18:26;102626.44;;;21.02;100.00
36726;BME280;44936;52.086;5.150;2023-09-08T09:20:56;102643.16;;;21.16;100.00
36726;BME280;44936;52.086;5.150;2023-09-08T09:23:28;102642.28;;;21.16;100.00
36726;BME280;44936;52.086;5.150;2023-09-08T09:25:55;102642.97;;;21.33;100.00
36726;BME280;44936;52.086;5.150;2023-09-08T09:28:30;102647.31;;;21.42;100.00
36726;BME280;44936;52.086;5.150;2023-09-08T09:30:55;102656.16;;;21.47;100.00
36726;BME280;44936;52.086;5.150;2023-09-08T09:33:22;102655.28;;;21.45;100.00
36726;BME280;44936;52.086;5.150;2023-09-08T09:35:49;102645.41;;;21.52;100.00
36726;BME280;44936;52.086;5.150;2023-09-08T09:39:03;102659.38;;;21.70;100.00
36726;BME280;44936;52.086;5.150;2023-09-08T09:41:58;102646.97;;;21.68;100.00
36726;BME280;44936;52.086;5.150;2023-09-08T09:44:24;102658.19;;;21.90;100.00
36726;BME280;44936;52.086;5.150;2023-09-08T09:47:27;102655.50;;;21.90;100.00
36726;BME280;44936;52.086;5.150;2023-09-08T09:50:02;102666.84;;;22.07;100.00
36726;BME280;44936;52.086;5.150;2023-09-08T09:52:28;102668.47;;;22.19;100.00
36726;BME280;44936;52.086;5.150;2023-09-08T09:54:57;102665.97;;;22.05;100.00
36726;BME280;44936;52.086;5.150;2023-09-08T09:57:54;102668.53;;;22.14;100.00
36726;BME280;44936;52.086;5.150;2023-09-08T10:01:11;102681.66;;;22.29;100.00
36726;BME280;44936;52.086;5.150;2023-09-08T10:03:40;102664.47;;;22.43;100.00
36726;BME280;44936;52.086;5.150;2023-09-08T10:06:06;102666.94;;;22.55;100.00
36726;BME280;44936;52.086;5.150;2023-09-08T10:08:34;102658.81;;;22.59;100.00
36726;BME280;44936;52.086;5.150;2023-09-08T10:11:05;102605.94;;;22.26;100.00
36726;BME280;44936;52.086;5.150;2023-09-08T10:13:35;102654.38;;;22.60;100.00
36726;BME280;44936;52.086;5.150;2023-09-08T10:16:05;102667.56;;;22.71;100.00
36726;BME280;44936;52.086;5.150;2023-09-08T10:18:33;102648.03;;;22.66;100.00
36726;BME280;44936;52.086;5.150;2023-09-08T10:21:03;102673.34;;;22.96;100.00
36726;BME280;44936;52.086;5.150;2023-09-08T10:23:43;102674.97;;;23.03;100.00
36726;BME280;44936;52.086;5.150;2023-09-08T10:26:10;102653.56;;;23.03;100.00
36726;BME280;44936;52.086;5.150;2023-09-08T10:28:38;102682.59;;;23.23;100.00
36726;BME280;44936;52.086;5.150;2023-09-08T10:31:04;102667.56;;;23.17;100.00
36726;BME280;44936;52.086;5.150;2023-09-08T10:33:34;102664.94;;;23.15;100.00
36726;BME280;44936;52.086;5.150;2023-09-08T10:36:01;102680.56;;;23.35;100.00
36726;BME280;44936;52.086;5.150;2023-09-08T10:38:47;102674.16;;;23.42;100.00
36726;BME280;44936;52.086;5.150;2023-09-08T10:43:43;102655.38;;;23.44;100.00
36726;BME280;44936;52.086;5.150;2023-09-08T10:46:09;102658.03;;;23.45;100.00
36726;BME280;44936;52.086;5.150;2023-09-08T10:49:04;102653.66;;;23.40;100.00
36726;BME280;44936;52.086;5.150;2023-09-08T10:51:31;102654.56;;;23.40;100.00
36726;BME280;44936;52.086;5.150;2023-09-08T10:53:57;102651.03;;;23.38;100.00
36726;BME280;44936;52.086;5.150;2023-09-08T10:56:27;102657.19;;;23.43;100.00
36726;BME280;44936;52.086;5.150;2023-09-08T10:58:54;102647.19;;;23.52;100.00
36726;BME280;44936;52.086;5.150;2023-09-08T11:01:21;102636.53;;;23.49;100.00
36726;BME280;44936;52.086;5.150;2023-09-08T11:03:53;102640.91;;;23.53;100.00
36726;BME280;44936;52.086;5.150;2023-09-08T11:06:20;102638.44;;;23.43;100.00
36726;BME280;44936;52.086;5.150;2023-09-08T11:08:48;102637.34;;;23.52;100.00
36726;BME280;44936;52.086;5.150;2023-09-08T11:11:16;102625.88;;;23.45;100.00
36726;BME280;44936;52.086;5.150;2023-09-08T11:13:42;102633.09;;;23.43;100.00
36726;BME280;44936;52.086;5.150;2023-09-08T11:16:11;102639.16;;;23.52;100.00
36726;BME280;44936;52.086;5.150;2023-09-08T11:18:36;102636.34;;;23.59;100.00
36726;BME280;44936;52.086;5.150;2023-09-08T11:21:07;102626.16;;;23.73;100.00
36726;BME280;44936;52.086;5.150;2023-09-08T11:23:33;102633.16;;;23.81;100.00
36726;BME280;44936;52.086;5.150;2023-09-08T11:25:59;102633.16;;;23.81;100.00
36726;BME280;44936;52.086;5.150;2023-09-08T11:28:27;102620.84;;;23.72;100.00
36726;BME280;44936;52.086;5.150;2023-09-08T11:30:54;102644.59;;;23.87;100.00
36726;BME280;44936;52.086;5.150;2023-09-08T11:33:21;102633.88;;;23.87;100.00
36726;BME280;44936;52.086;5.150;2023-09-08T11:35:51;102631.88;;;23.97;100.00
36726;BME280;44936;52.086;5.150;2023-09-08T11:38:17;102590.59;;;23.68;100.00
36726;BME280;44936;52.086;5.150;2023-09-08T11:40:43;102622.63;;;24.09;100.00
36726;BME280;44936;52.086;5.150;2023-09-08T11:43:08;102614.06;;;23.94;100.00
36726;BME280;44936;52.086;5.150;2023-09-08T11:45:35;102598.84;;;24.29;100.00
36726;BME280;44936;52.086;5.150;2023-09-08T11:48:01;102596.16;;;24.30;100.00
36726;BME280;44936;52.086;5.150;2023-09-08T11:50:27;102603.06;;;24.41;100.00
36726;BME280;44936;52.086;5.150;2023-09-08T11:52:53;102594.88;;;24.45;100.00
36726;BME280;44936;52.086;5.150;2023-09-08T11:55:20;102599.53;;;24.39;100.00
36726;BME280;44936;52.086;5.150;2023-09-08T11:57:48;102603.78;;;24.47;100.00
36726;BME280;44936;52.086;5.150;2023-09-08T12:00:16;102605.34;;;24.54;100.00
36726;BME280;44936;52.086;5.150;2023-09-08T12:02:44;102576.91;;;24.49;100.00
36726;BME280;44936;52.086;5.150;2023-09-08T12:05:19;102585.84;;;24.49;100.00
36726;BME280;44936;52.086;5.150;2023-09-08T12:07:45;102600.53;;;24.67;100.00
36726;BME280;44936;52.086;5.150;2023-09-08T12:10:11;102570.81;;;24.75;100.00
36726;BME280;44936;52.086;5.150;2023-09-08T12:12:45;102551.66;;;24.87;100.00
36726;BME280;44936;52.086;5.150;2023-09-08T12:15:11;102548.88;;;24.90;100.00
36726;BME280;44936;52.086;5.150;2023-09-08T12:17:47;102575.63;;;24.93;100.00
36726;BME280;44936;52.086;5.150;2023-09-08T12:20:14;102584.47;;;24.97;100.00
36726;BME280;44936;52.086;5.150;2023-09-08T12:22:48;102586.44;;;24.90;100.00
36726;BME280;44936;52.086;5.150;2023-09-08T12:25:14;102533.00;;;24.82;100.00
36726;BME280;44936;52.086;5.150;2023-09-08T12:27:39;102556.63;;;25.01;100.00
36726;BME280;44936;52.086;5.150;2023-09-08T12:30:05;102548.56;;;25.02;100.00
36726;BME280;44936;52.086;5.150;2023-09-08T12:32:32;102546.16;;;24.92;100.00
36726;BME280;44936;52.086;5.150;2023-09-08T12:34:58;102545.00;;;25.00;100.00
36726;BME280;44936;52.086;5.150;2023-09-08T12:37:25;102559.09;;;25.08;100.00
36726;BME280;44936;52.086;5.150;2023-09-08T12:39:55;102531.13;;;24.86;100.00
36726;BME280;44936;52.086;5.150;2023-09-08T12:42:22;102553.91;;;25.02;100.00
36726;BME280;44936;52.086;5.150;2023-09-08T12:44:51;102514.28;;;25.10;100.00
36726;BME280;44936;52.086;5.150;2023-09-08T12:47:18;102544.75;;;25.09;100.00